Time;durP1;ratioP1;P1;durP2;ratioP2;P2;SDS_P1;SDS_P2;PMS_P1;PMS_P2;Temp;Humidity;BMP_temperature;BMP_pressure;BME280_temperature;BME280_humidity;BME280_pressure;Samples;Min_cycle;Max_cycle;Signal;HPM_P1;HPM_P2
2023/05/08 00:00:38;;;;;;;;;;;;;;;;;;5067762;28;19936;-56
2023/05/08 00:03:04;;;;;;;;;;;;;;;;;;5065627;28;19982;-56
2023/05/08 00:05:30;;;;;;;;;;;;;;;;;;5069414;28;20300;-56
2023/05/08 00:08:00;;;;;;;;;;;;;;;;;;5065645;28;20659;-56
2023/05/08 00:10:26;;;;;;;;;;;;;;;;;;5068049;28;19970;-56
2023/05/08 00:12:52;;;;;;;;;;;;;;;;;;5070949;28;19912;-56
2023/05/08 00:15:18;;;;;;;;;;;;;;;;;;5066358;28;19916;-56
2023/05/08 00:17:44;;;;;;;;;;;;;;;;;;5066136;28;19962;-56
2023/05/08 00:20:10;;;;;;;;;;;;;;;;;;5062584;28;19913;-56
2023/05/08 00:22:36;;;;;;;;;;;;;;;;;;5069427;28;19915;-56
2023/05/08 00:25:04;;;;;;;;;;;;;;;;;;5063732;28;19917;-56
2023/05/08 00:27:30;;;;;;;;;;;;;;;;;;5066536;28;19939;-56
2023/05/08 00:29:56;;;;;;;;;;;;;;;;;;5062212;28;20383;-56
2023/05/08 00:32:22;;;;;;;;;;;;;;;;;;5062854;28;19958;-56
2023/05/08 00:34:48;;;;;;;;;;;;;;;;;;5064424;28;19912;-56
2023/05/08 00:37:14;;;;;;;;;;;;;;;;;;5064665;28;20359;-56
2023/05/08 00:39:40;;;;;;;;;;;;;;;;;;5067757;28;20331;-56
2023/05/08 00:42:06;;;;;;;;;;;;;;;;;;5035627;28;20345;-56
2023/05/08 00:44:32;;;;;;;;;;;;;;;;;;5064537;28;19967;-56
2023/05/08 00:46:58;;;;;;;;;;;;;;;;;;5069063;28;19944;-56
2023/05/08 00:49:24;;;;;;;;;;;;;;;;;;5058624;28;20416;-56
2023/05/08 00:51:50;;;;;;;;;;;;;;;;;;5065409;28;19916;-55
2023/05/08 00:54:16;;;;;;;;;;;;;;;;;;5064798;28;19915;-55
2023/05/08 00:56:42;;;;;;;;;;;;;;;;;;5065610;28;20374;-56
2023/05/08 00:59:09;;;;;;;;;;;;;;;;;;5066869;28;20000;-57
2023/05/08 01:01:35;;;;;;;;;;;;;;;;;;5066382;28;19918;-55
2023/05/08 01:04:01;;;;;;;;;;;;;;;;;;5065519;28;19940;-55
2023/05/08 01:06:27;;;;;;;;;;;;;;;;;;5073772;28;20320;-56
2023/05/08 01:08:52;;;;;;;;;;;;;;;;;;5064240;28;20390;-56
2023/05/08 01:11:18;;;;;;;;;;;;;;;;;;5067600;28;19974;-56
2023/05/08 01:13:44;;;;;;;;;;;;;;;;;;5069361;28;20335;-56
2023/05/08 01:16:10;;;;;;;;;;;;;;;;;;5068406;28;20375;-56
2023/05/08 01:18:36;;;;;;;;;;;;;;;;;;5065927;28;19943;-56
2023/05/08 01:21:02;;;;;;;;;;;;;;;;;;5070774;28;19909;-56
2023/05/08 01:23:28;;;;;;;;;;;;;;;;;;5066735;28;20275;-55
2023/05/08 01:25:54;;;;;;;;;;;;;;;;;;5072623;28;19953;-56
2023/05/08 01:28:20;;;;;;;;;;;;;;;;;;5065667;28;19912;-56
2023/05/08 01:30:46;;;;;;;;;;;;;;;;;;5061224;28;20039;-56
2023/05/08 01:33:13;;;;;;;;;;;;;;;;;;5060583;28;19987;-56
2023/05/08 01:35:39;;;;;;;;;;;;;;;;;;5067761;28;20365;-55
2023/05/08 01:38:05;;;;;;;;;;;;;;;;;;5065978;28;19940;-55
2023/05/08 01:40:31;;;;;;;;;;;;;;;;;;5069581;28;20326;-56
2023/05/08 01:42:56;;;;;;;;;;;;;;;;;;5065573;28;20348;-55
2023/05/08 01:45:22;;;;;;;;;;;;;;;;;;5065577;28;19971;-55
2023/05/08 01:47:48;;;;;;;;;;;;;;;;;;5066613;28;19967;-56
2023/05/08 01:50:14;;;;;;;;;;;;;;;;;;5068824;28;19950;-55
2023/05/08 01:52:40;;;;;;;;;;;;;;;;;;5064319;28;20022;-56
2023/05/08 01:55:06;;;;;;;;;;;;;;;;;;5064127;28;19917;-55
2023/05/08 01:57:32;;;;;;;;;;;;;;;;;;5068647;28;19954;-55
2023/05/08 01:59:58;;;;;;;;;;;;;;;;;;5059947;28;19976;-55
2023/05/08 02:02:24;;;;;;;;;;;;;;;;;;5062593;28;20336;-55
2023/05/08 02:04:50;;;;;;;;;;;;;;;;;;5057690;28;20365;-55
2023/05/08 02:07:16;;;;;;;;;;;;;;;;;;5060864;28;19962;-56
2023/05/08 02:09:42;;;;;;;;;;;;;;;;;;5065107;28;19950;-56
2023/05/08 02:12:08;;;;;;;;;;;;;;;;;;5049007;28;19944;-56
2023/05/08 02:14:34;;;;;;;;;;;;;;;;;;5067753;28;20308;-55
2023/05/08 02:17:00;;;;;;;;;;;;;;;;;;5066744;28;19998;-55
2023/05/08 02:19:26;;;;;;;;;;;;;;;;;;5060953;28;21507;-55
2023/05/08 02:21:52;;;;;;;;;;;;;;;;;;5066089;28;19924;-56
2023/05/08 02:24:18;;;;;;;;;;;;;;;;;;5062910;28;19920;-56
2023/05/08 02:26:44;;;;;;;;;;;;;;;;;;5065416;28;19970;-56
2023/05/08 02:29:09;;;;;;;;;;;;;;;;;;5068709;28;20742;-55
2023/05/08 02:31:35;;;;;;;;;;;;;;;;;;5068225;28;20394;-56
2023/05/08 02:34:01;;;;;;;;;;;;;;;;;;5063871;28;19912;-56
2023/05/08 02:36:27;;;;;;;;;;;;;;;;;;5072218;28;20399;-56
2023/05/08 02:38:53;;;;;;;;;;;;;;;;;;5066809;28;20328;-55
2023/05/08 02:41:21;;;;;;;;;;;;;;;;;;5071757;28;19995;-55
2023/05/08 02:43:47;;;;;;;;;;;;;;;;;;5064131;28;20485;-56
2023/05/08 02:46:12;;;;;;;;;;;;;;;;;;5067722;28;19916;-55
2023/05/08 02:48:38;;;;;;;;;;;;;;;;;;5059654;28;20324;-55
2023/05/08 02:51:05;;;;;;;;;;;;;;;;;;5064257;28;20352;-56
2023/05/08 02:53:31;;;;;;;;;;;;;;;;;;5066287;28;19913;-55
2023/05/08 02:55:57;;;;;;;;;;;;;;;;;;5066884;28;19913;-55
2023/05/08 02:58:23;;;;;;;;;;;;;;;;;;5041983;28;19951;-56
2023/05/08 03:00:49;;;;;;;;;;;;;;;;;;5065342;28;20340;-56
2023/05/08 03:03:16;;;;;;;;;;;;;;;;;;5062195;28;20339;-56
2023/05/08 03:05:42;;;;;;;;;;;;;;;;;;5065801;28;19912;-56
2023/05/08 03:08:08;;;;;;;;;;;;;;;;;;5064980;28;20171;-56
2023/05/08 03:10:34;;;;;;;;;;;;;;;;;;5070162;28;20402;-56
2023/05/08 03:13:00;;;;;;;;;;;;;;;;;;5066882;28;19924;-56
2023/05/08 03:15:26;;;;;;;;;;;;;;;;;;5063489;28;20376;-56
2023/05/08 03:17:52;;;;;;;;;;;;;;;;;;5059337;28;19918;-56
2023/05/08 03:20:18;;;;;;;;;;;;;;;;;;5059845;28;19913;-56
2023/05/08 03:22:44;;;;;;;;;;;;;;;;;;5066048;28;19947;-56
2023/05/08 03:25:10;;;;;;;;;;;;;;;;;;5062339;28;19952;-56
2023/05/08 03:27:36;;;;;;;;;;;;;;;;;;5060033;28;19952;-56
2023/05/08 03:30:02;;;;;;;;;;;;;;;;;;5063597;28;20376;-56
2023/05/08 03:32:28;;;;;;;;;;;;;;;;;;5068742;28;20091;-56
2023/05/08 03:34:54;;;;;;;;;;;;;;;;;;5066368;28;19995;-55
2023/05/08 03:37:20;;;;;;;;;;;;;;;;;;5066436;28;20007;-56
2023/05/08 03:39:46;;;;;;;;;;;;;;;;;;5070721;28;19956;-57
2023/05/08 03:42:20;;;;;;;;;;;;;;;;;;5068788;28;19955;-56
2023/05/08 03:44:46;;;;;;;;;;;;;;;;;;5062650;28;19999;-57
2023/05/08 03:47:11;;;;;;;;;;;;;;;;;;5064210;28;20038;-56
2023/05/08 03:49:37;;;;;;;;;;;;;;;;;;5067176;28;19989;-55
2023/05/08 03:52:03;;;;;;;;;;;;;;;;;;5067298;28;20001;-55
2023/05/08 03:54:29;;;;;;;;;;;;;;;;;;5062088;28;20386;-56
2023/05/08 03:56:55;;;;;;;;;;;;;;;;;;5067446;28;19952;-56
2023/05/08 03:59:21;;;;;;;;;;;;;;;;;;5063049;28;20364;-56
2023/05/08 04:01:47;;;;;;;;;;;;;;;;;;5066187;28;20003;-56
2023/05/08 04:04:13;;;;;;;;;;;;;;;;;;5061251;28;19940;-56
2023/05/08 04:06:39;;;;;;;;;;;;;;;;;;5066159;28;19954;-56
2023/05/08 04:09:05;;;;;;;;;;;;;;;;;;5067243;28;19915;-55
2023/05/08 04:11:31;;;;;;;;;;;;;;;;;;5069660;28;20382;-55
2023/05/08 04:13:57;;;;;;;;;;;;;;;;;;5065874;28;19915;-56
2023/05/08 04:16:26;;;;;;;;;;;;;;;;;;5065512;28;20489;-56
2023/05/08 04:18:52;;;;;;;;;;;;;;;;;;5066863;28;20367;-56
2023/05/08 04:21:18;;;;;;;;;;;;;;;;;;5067488;28;19999;-56
2023/05/08 04:23:44;;;;;;;;;;;;;;;;;;5062249;28;19998;-56
2023/05/08 04:26:10;;;;;;;;;;;;;;;;;;5070606;28;19916;-56
2023/05/08 04:28:36;;;;;;;;;;;;;;;;;;5066947;28;19956;-55
2023/05/08 04:31:02;;;;;;;;;;;;;;;;;;5066783;28;19946;-56
2023/05/08 04:33:28;;;;;;;;;;;;;;;;;;5065752;28;19991;-55
2023/05/08 04:35:54;;;;;;;;;;;;;;;;;;5068482;28;20015;-56
2023/05/08 04:38:20;;;;;;;;;;;;;;;;;;5066161;28;20019;-56
2023/05/08 04:40:46;;;;;;;;;;;;;;;;;;5061482;28;19947;-56
2023/05/08 04:43:12;;;;;;;;;;;;;;;;;;5065464;28;19943;-56
2023/05/08 04:45:38;;;;;;;;;;;;;;;;;;5066588;28;19948;-56
2023/05/08 04:48:04;;;;;;;;;;;;;;;;;;5062228;28;19990;-56
2023/05/08 04:50:29;;;;;;;;;;;;;;;;;;5064465;28;19978;-56
2023/05/08 04:52:56;;;;;;;;;;;;;;;;;;5067615;28;19973;-55
2023/05/08 04:55:22;;;;;;;;;;;;;;;;;;5063473;28;20023;-56
2023/05/08 04:57:47;;;;;;;;;;;;;;;;;;5061313;28;20050;-56
2023/05/08 05:00:13;;;;;;;;;;;;;;;;;;5060623;28;19959;-56
2023/05/08 05:02:39;;;;;;;;;;;;;;;;;;5060554;28;19955;-55
2023/05/08 05:05:05;;;;;;;;;;;;;;;;;;5065459;28;19956;-55
2023/05/08 05:07:31;;;;;;;;;;;;;;;;;;5065955;28;19959;-56
2023/05/08 05:09:57;;;;;;;;;;;;;;;;;;5065788;28;19936;-55
2023/05/08 05:12:23;;;;;;;;;;;;;;;;;;5068024;28;19951;-56
2023/05/08 05:14:49;;;;;;;;;;;;;;;;;;5063508;28;19939;-56
2023/05/08 05:17:15;;;;;;;;;;;;;;;;;;5068572;28;19947;-56
2023/05/08 05:19:41;;;;;;;;;;;;;;;;;;5067501;28;19972;-55
2023/05/08 05:22:07;;;;;;;;;;;;;;;;;;5065295;28;19912;-56
2023/05/08 05:24:34;;;;;;;;;;;;;;;;;;5070113;28;20003;-56
2023/05/08 05:27:01;;;;;;;;;;;;;;;;;;5065808;28;20410;-55
2023/05/08 05:29:27;;;;;;;;;;;;;;;;;;5067827;28;19920;-56
2023/05/08 05:31:53;;;;;;;;;;;;;;;;;;5075852;28;19942;-54
2023/05/08 05:34:19;;;;;;;;;;;;;;;;;;5066508;28;20026;-55
2023/05/08 05:36:45;;;;;;;;;;;;;;;;;;5072036;28;19951;-56
2023/05/08 05:39:10;;;;;;;;;;;;;;;;;;5067517;28;19947;-56
2023/05/08 05:41:36;;;;;;;;;;;;;;;;;;5048604;28;19912;-55
2023/05/08 05:44:03;;;;;;;;;;;;;;;;;;5062514;28;19999;-56
2023/05/08 05:46:31;;;;;;;;;;;;;;;;;;5060402;28;19923;-56
2023/05/08 05:48:57;;;;;;;;;;;;;;;;;;5061143;28;20027;-56
2023/05/08 05:51:23;;;;;;;;;;;;;;;;;;5059437;28;20380;-56
2023/05/08 05:53:49;;;;;;;;;;;;;;;;;;5051517;28;20034;-56
2023/05/08 05:56:15;;;;;;;;;;;;;;;;;;5067374;28;19991;-56
2023/05/08 05:58:43;;;;;;;;;;;;;;;;;;5068323;28;19912;-55
2023/05/08 06:01:09;;;;;;;;;;;;;;;;;;5065431;28;19912;-56
2023/05/08 06:03:35;;;;;;;;;;;;;;;;;;5064288;28;19912;-56
2023/05/08 06:06:01;;;;;;;;;;;;;;;;;;5068445;28;19974;-57
2023/05/08 06:08:27;;;;;;;;;;;;;;;;;;5045935;28;19997;-56
2023/05/08 06:10:53;;;;;;;;;;;;;;;;;;5067952;28;19954;-56
2023/05/08 06:13:19;;;;;;;;;;;;;;;;;;5064212;28;20375;-56
2023/05/08 06:15:45;;;;;;;;;;;;;;;;;;5064615;28;19912;-54
2023/05/08 06:18:11;;;;;;;;;;;;;;;;;;5062755;28;19958;-55
2023/05/08 06:20:37;;;;;;;;;;;;;;;;;;5061933;28;19967;-56
2023/05/08 06:23:03;;;;;;;;;;;;;;;;;;5058860;28;19912;-55
2023/05/08 06:25:29;;;;;;;;;;;;;;;;;;5067504;28;20394;-55
2023/05/08 06:27:55;;;;;;;;;;;;;;;;;;5065738;28;19958;-56
2023/05/08 06:30:21;;;;;;;;;;;;;;;;;;5065169;28;20388;-55
2023/05/08 06:32:47;;;;;;;;;;;;;;;;;;5063006;28;19912;-55
2023/05/08 06:35:18;;;;;;;;;;;;;;;;;;5059962;28;20402;-55
2023/05/08 06:37:44;;;;;;;;;;;;;;;;;;5059741;28;19916;-55
2023/05/08 06:40:10;;;;;;;;;;;;;;;;;;5057682;28;19916;-55
2023/05/08 06:42:36;;;;;;;;;;;;;;;;;;5065813;28;20499;-56
2023/05/08 06:45:02;;;;;;;;;;;;;;;;;;5039205;28;19948;-55
2023/05/08 06:47:28;;;;;;;;;;;;;;;;;;5070054;28;19918;-56
2023/05/08 06:49:54;;;;;;;;;;;;;;;;;;5057108;28;19943;-55
2023/05/08 06:52:20;;;;;;;;;;;;;;;;;;5060513;28;20155;-55
2023/05/08 06:54:46;;;;;;;;;;;;;;;;;;5065610;28;19912;-56
2023/05/08 06:57:15;;;;;;;;;;;;;;;;;;5055259;28;19955;-55
2023/05/08 06:59:43;;;;;;;;;;;;;;;;;;5057686;28;19912;-55
2023/05/08 07:02:09;;;;;;;;;;;;;;;;;;5058401;28;20435;-56
2023/05/08 07:04:35;;;;;;;;;;;;;;;;;;5063577;28;20011;-56
2023/05/08 07:07:01;;;;;;;;;;;;;;;;;;5060271;28;20078;-56
2023/05/08 07:09:27;;;;;;;;;;;;;;;;;;5058300;28;20463;-55
2023/05/08 07:11:53;;;;;;;;;;;;;;;;;;5062492;28;19916;-56
2023/05/08 07:14:19;;;;;;;;;;;;;;;;;;5065046;28;20054;-55
2023/05/08 07:16:45;;;;;;;;;;;;;;;;;;5063216;28;19954;-55
2023/05/08 07:19:11;;;;;;;;;;;;;;;;;;5066824;28;20427;-56
2023/05/08 07:21:37;;;;;;;;;;;;;;;;;;5077666;28;19947;-55
2023/05/08 07:24:03;;;;;;;;;;;;;;;;;;5064410;28;20374;-56
2023/05/08 07:26:29;;;;;;;;;;;;;;;;;;5061270;28;19951;-54
2023/05/08 07:28:55;;;;;;;;;;;;;;;;;;5055047;28;19913;-55
2023/05/08 07:31:21;;;;;;;;;;;;;;;;;;5065833;28;20315;-55
2023/05/08 07:33:47;;;;;;;;;;;;;;;;;;5068500;28;20366;-56
2023/05/08 07:36:13;;;;;;;;;;;;;;;;;;5068029;28;19960;-55
2023/05/08 07:38:39;;;;;;;;;;;;;;;;;;5071448;28;20054;-56
2023/05/08 07:41:05;;;;;;;;;;;;;;;;;;5066592;28;20392;-56
2023/05/08 07:43:31;;;;;;;;;;;;;;;;;;5067417;28;19908;-56
2023/05/08 07:45:57;;;;;;;;;;;;;;;;;;5075094;28;19957;-56
2023/05/08 07:48:23;;;;;;;;;;;;;;;;;;5064677;28;20383;-56
2023/05/08 07:50:49;;;;;;;;;;;;;;;;;;5065909;28;19912;-56
2023/05/08 07:53:15;;;;;;;;;;;;;;;;;;5049993;28;20368;-56
2023/05/08 07:55:41;;;;;;;;;;;;;;;;;;5064399;28;19915;-56
2023/05/08 07:58:07;;;;;;;;;;;;;;;;;;5053962;28;19995;-56
2023/05/08 08:00:33;;;;;;;;;;;;;;;;;;5058927;28;19942;-56
2023/05/08 08:02:59;;;;;;;;;;;;;;;;;;5077447;28;20372;-55
2023/05/08 08:05:25;;;;;;;;;;;;;;;;;;5059290;28;19998;-55
2023/05/08 08:07:51;;;;;;;;;;;;;;;;;;5058196;28;19955;-55
2023/05/08 08:10:17;;;;;;;;;;;;;;;;;;5063647;28;19912;-55
2023/05/08 08:12:43;;;;;;;;;;;;;;;;;;5066427;28;20069;-56
2023/05/08 08:15:09;;;;;;;;;;;;;;;;;;5060744;28;20073;-55
2023/05/08 08:17:35;;;;;;;;;;;;;;;;;;5067752;28;19963;-55
2023/05/08 08:20:01;;;;;;;;;;;;;;;;;;5057921;28;20363;-55
2023/05/08 08:22:27;;;;;;;;;;;;;;;;;;5066457;28;20356;-55
2023/05/08 08:24:53;;;;;;;;;;;;;;;;;;5065667;28;19960;-56
2023/05/08 08:27:19;;;;;;;;;;;;;;;;;;5064197;28;19920;-56
2023/05/08 08:29:45;;;;;;;;;;;;;;;;;;5062610;28;19962;-55
2023/05/08 08:32:11;;;;;;;;;;;;;;;;;;5062554;28;19992;-55
2023/05/08 08:34:37;;;;;;;;;;;;;;;;;;5066453;28;20068;-56
2023/05/08 08:37:03;;;;;;;;;;;;;;;;;;5058350;28;19971;-58
2023/05/08 08:39:29;;;;;;;;;;;;;;;;;;5060642;28;20651;-55
2023/05/08 08:41:55;;;;;;;;;;;;;;;;;;5064364;28;20307;-61
2023/05/08 08:44:21;;;;;;;;;;;;;;;;;;5066176;28;19951;-55
2023/05/08 08:46:50;;;;;;;;;;;;;;;;;;5050544;28;19955;-56
2023/05/08 08:49:16;;;;;;;;;;;;;;;;;;5064198;28;19909;-55
2023/05/08 08:51:43;;;;;;;;;;;;;;;;;;5067853;28;20322;-55
2023/05/08 08:54:09;;;;;;;;;;;;;;;;;;5063194;28;19912;-55
2023/05/08 08:56:34;;;;;;;;;;;;;;;;;;5069354;28;19954;-55
2023/05/08 08:59:00;;;;;;;;;;;;;;;;;;5067107;28;19962;-56
2023/05/08 09:01:28;;;;;;;;;;;;;;;;;;5050912;28;19908;-55
2023/05/08 09:03:54;;;;;;;;;;;;;;;;;;5069450;28;19966;-56
2023/05/08 09:06:20;;;;;;;;;;;;;;;;;;5068454;28;20015;-55
2023/05/08 09:08:46;;;;;;;;;;;;;;;;;;5063142;28;20456;-64
2023/05/08 09:11:12;;;;;;;;;;;;;;;;;;5054980;28;20094;-56
2023/05/08 09:13:38;;;;;;;;;;;;;;;;;;5068805;28;19960;-56
2023/05/08 09:16:04;;;;;;;;;;;;;;;;;;5064177;28;20426;-56
2023/05/08 09:18:30;;;;;;;;;;;;;;;;;;5061689;28;20323;-56
2023/05/08 09:20:56;;;;;;;;;;;;;;;;;;5057303;28;19908;-55
2023/05/08 09:23:22;;;;;;;;;;;;;;;;;;5063255;28;19917;-55
2023/05/08 09:25:48;;;;;;;;;;;;;;;;;;5067685;28;20467;-56
2023/05/08 09:28:14;;;;;;;;;;;;;;;;;;5065129;28;19947;-52
2023/05/08 09:30:40;;;;;;;;;;;;;;;;;;5059810;28;19923;-55
2023/05/08 09:33:06;;;;;;;;;;;;;;;;;;5063056;28;19972;-55
2023/05/08 09:35:33;;;;;;;;;;;;;;;;;;5039695;28;19916;-55
2023/05/08 09:37:59;;;;;;;;;;;;;;;;;;5062384;28;19970;-55
2023/05/08 09:40:25;;;;;;;;;;;;;;;;;;5063672;28;19919;-56
2023/05/08 09:42:51;;;;;;;;;;;;;;;;;;5066270;28;20375;-56
2023/05/08 09:45:17;;;;;;;;;;;;;;;;;;5056676;28;19966;-56
2023/05/08 09:47:43;;;;;;;;;;;;;;;;;;5058610;28;19908;-56
2023/05/08 09:50:09;;;;;;;;;;;;;;;;;;5066929;28;20240;-56
2023/05/08 09:52:35;;;;;;;;;;;;;;;;;;5067883;28;20016;-57
2023/05/08 09:55:01;;;;;;;;;;;;;;;;;;5063725;28;20368;-57
2023/05/08 09:57:27;;;;;;;;;;;;;;;;;;5061662;28;19946;-57
2023/05/08 09:59:53;;;;;;;;;;;;;;;;;;5061601;28;20368;-57
2023/05/08 10:02:19;;;;;;;;;;;;;;;;;;5059611;28;20407;-56
2023/05/08 10:04:46;;;;;;;;;;;;;;;;;;5058369;28;19908;-55
2023/05/08 10:07:12;;;;;;;;;;;;;;;;;;5061776;28;19908;-56
2023/05/08 10:09:37;;;;;;;;;;;;;;;;;;5062680;28;19943;-55
2023/05/08 10:12:04;;;;;;;;;;;;;;;;;;5062697;28;19966;-55
2023/05/08 10:14:30;;;;;;;;;;;;;;;;;;5059587;28;20204;-56
2023/05/08 10:16:56;;;;;;;;;;;;;;;;;;5065751;28;19955;-60
2023/05/08 10:19:21;;;;;;;;;;;;;;;;;;5064469;28;20335;-55
2023/05/08 10:21:48;;;;;;;;;;;;;;;;;;5064349;28;20366;-55
2023/05/08 10:24:14;;;;;;;;;;;;;;;;;;5062128;28;19962;-55
2023/05/08 10:26:40;;;;;;;;;;;;;;;;;;5063786;28;19924;-55
2023/05/08 10:29:06;;;;;;;;;;;;;;;;;;5061480;28;20376;-56
2023/05/08 10:31:32;;;;;;;;;;;;;;;;;;5064899;28;19916;-55
2023/05/08 10:33:58;;;;;;;;;;;;;;;;;;5063117;28;20316;-54
2023/05/08 10:36:25;;;;;;;;;;;;;;;;;;5044057;28;20453;-55
2023/05/08 10:38:51;;;;;;;;;;;;;;;;;;5063119;28;19916;-55
2023/05/08 10:41:17;;;;;;;;;;;;;;;;;;5068809;28;19914;-55
2023/05/08 10:43:43;;;;;;;;;;;;;;;;;;5067425;28;19913;-54
2023/05/08 10:46:09;;;;;;;;;;;;;;;;;;5064538;28;19959;-54
2023/05/08 10:48:35;;;;;;;;;;;;;;;;;;5060649;28;19960;-54
2023/05/08 10:51:01;;;;;;;;;;;;;;;;;;5062366;28;20384;-54
2023/05/08 10:53:27;;;;;;;;;;;;;;;;;;5065593;28;20434;-55
2023/05/08 10:55:53;;;;;;;;;;;;;;;;;;5064186;28;20295;-55
2023/05/08 10:58:19;;;;;;;;;;;;;;;;;;5045488;28;20498;-54
2023/05/08 11:00:45;;;;;;;;;;;;;;;;;;5057567;28;20250;-54
2023/05/08 11:03:11;;;;;;;;;;;;;;;;;;5056039;28;19964;-56
2023/05/08 11:05:37;;;;;;;;;;;;;;;;;;5062666;28;19914;-55
2023/05/08 11:08:03;;;;;;;;;;;;;;;;;;5063005;28;20003;-55
2023/05/08 11:10:29;;;;;;;;;;;;;;;;;;5066729;28;20312;-54
2023/05/08 11:12:55;;;;;;;;;;;;;;;;;;5065620;28;19923;-55
2023/05/08 11:15:21;;;;;;;;;;;;;;;;;;5063813;28;19916;-55
2023/05/08 11:17:49;;;;;;;;;;;;;;;;;;5050598;28;19958;-54
2023/05/08 11:20:14;;;;;;;;;;;;;;;;;;5060548;28;19916;-55
2023/05/08 11:22:41;;;;;;;;;;;;;;;;;;5064680;28;19970;-55
2023/05/08 11:25:07;;;;;;;;;;;;;;;;;;5068069;28;19909;-55
2023/05/08 11:27:33;;;;;;;;;;;;;;;;;;5065063;28;19924;-54
2023/05/08 11:29:59;;;;;;;;;;;;;;;;;;5062351;28;19978;-54
2023/05/08 11:32:25;;;;;;;;;;;;;;;;;;5060642;28;20010;-55
2023/05/08 11:34:51;;;;;;;;;;;;;;;;;;5061968;28;19954;-55
2023/05/08 11:37:17;;;;;;;;;;;;;;;;;;5065802;28;20070;-55
2023/05/08 11:39:43;;;;;;;;;;;;;;;;;;5062086;28;20011;-54
2023/05/08 11:42:09;;;;;;;;;;;;;;;;;;5066076;28;19955;-54
2023/05/08 11:44:35;;;;;;;;;;;;;;;;;;5065408;28;19967;-54
2023/05/08 11:47:01;;;;;;;;;;;;;;;;;;5061255;28;19920;-54
2023/05/08 11:49:28;;;;;;;;;;;;;;;;;;5048681;28;19939;-54
2023/05/08 11:51:56;;;;;;;;;;;;;;;;;;5064798;28;19912;-54
2023/05/08 11:54:22;;;;;;;;;;;;;;;;;;5067263;28;19955;-54
2023/05/08 11:56:48;;;;;;;;;;;;;;;;;;5056329;28;19998;-54
2023/05/08 11:59:15;;;;;;;;;;;;;;;;;;5068039;28;20346;-53
2023/05/08 12:01:41;;;;;;;;;;;;;;;;;;5066950;28;20032;-54
2023/05/08 12:04:10;;;;;;;;;;;;;;;;;;5070087;28;19908;-54
2023/05/08 12:06:37;;;;;;;;;;;;;;;;;;5062513;28;20319;-54
2023/05/08 12:09:04;;;;;;;;;;;;;;;;;;5071266;28;19909;-54
2023/05/08 12:11:30;;;;;;;;;;;;;;;;;;5072681;28;19939;-53
2023/05/08 12:13:56;;;;;;;;;;;;;;;;;;5066928;28;20367;-54
2023/05/08 12:16:23;;;;;;;;;;;;;;;;;;5072048;28;19943;-55
2023/05/08 12:18:50;;;;;;;;;;;;;;;;;;5069487;28;19912;-53
2023/05/08 12:21:16;;;;;;;;;;;;;;;;;;5070630;28;19912;-53
2023/05/08 12:23:42;;;;;;;;;;;;;;;;;;5047870;28;19959;-53
2023/05/08 12:26:08;;;;;;;;;;;;;;;;;;5064792;28;19962;-53
2023/05/08 12:28:34;;;;;;;;;;;;;;;;;;5066925;28;19952;-54
2023/05/08 12:31:00;;;;;;;;;;;;;;;;;;5068542;28;19974;-54
2023/05/08 12:33:27;;;;;;;;;;;;;;;;;;5068308;28;20372;-53
2023/05/08 12:35:53;;;;;;;;;;;;;;;;;;5063507;28;19954;-53
2023/05/08 12:38:19;;;;;;;;;;;;;;;;;;5069602;28;20003;-54
2023/05/08 12:40:45;;;;;;;;;;;;;;;;;;5071154;28;19962;-54
2023/05/08 12:43:11;;;;;;;;;;;;;;;;;;5072474;28;19978;-54
2023/05/08 12:45:38;;;;;;;;;;;;;;;;;;5060241;28;19919;-54
2023/05/08 12:48:04;;;;;;;;;;;;;;;;;;5061446;28;19912;-55
2023/05/08 12:50:31;;;;;;;;;;;;;;;;;;5063417;28;19994;-55
2023/05/08 12:52:57;;;;;;;;;;;;;;;;;;5067150;28;20446;-55
2023/05/08 12:55:23;;;;;;;;;;;;;;;;;;5056943;28;19951;-58
2023/05/08 12:57:50;;;;;;;;;;;;;;;;;;5059532;28;19962;-57
2023/05/08 13:00:16;;;;;;;;;;;;;;;;;;5064059;28;19931;-58
2023/05/08 13:02:42;;;;;;;;;;;;;;;;;;5063519;28;19986;-58
2023/05/08 13:05:08;;;;;;;;;;;;;;;;;;5057204;28;19927;-58
2023/05/08 13:07:34;;;;;;;;;;;;;;;;;;5064440;28;19963;-58
2023/05/08 13:10:03;;;;;;;;;;;;;;;;;;5068338;28;20283;-58
2023/05/08 13:12:30;;;;;;;;;;;;;;;;;;5061216;28;19916;-57
2023/05/08 13:14:56;;;;;;;;;;;;;;;;;;5065189;28;19912;-58
2023/05/08 13:17:22;;;;;;;;;;;;;;;;;;5060272;28;19956;-58
2023/05/08 13:19:48;;;;;;;;;;;;;;;;;;5051113;28;19955;-59
2023/05/08 13:22:14;;;;;;;;;;;;;;;;;;5067336;28;20274;-58
2023/05/08 13:24:40;;;;;;;;;;;;;;;;;;5065936;28;19909;-57
2023/05/08 13:27:06;;;;;;;;;;;;;;;;;;5063487;28;19916;-57
2023/05/08 13:29:32;;;;;;;;;;;;;;;;;;5064044;28;20395;-57
2023/05/08 13:31:58;;;;;;;;;;;;;;;;;;5049560;28;19912;-58
2023/05/08 13:34:24;;;;;;;;;;;;;;;;;;5067742;28;19999;-58
2023/05/08 13:36:50;;;;;;;;;;;;;;;;;;5066254;28;19908;-57
2023/05/08 13:39:16;;;;;;;;;;;;;;;;;;5060050;28;19923;-57
2023/05/08 13:41:42;;;;;;;;;;;;;;;;;;5062474;28;20331;-58
2023/05/08 13:44:08;;;;;;;;;;;;;;;;;;5069520;28;19951;-58
2023/05/08 13:46:34;;;;;;;;;;;;;;;;;;5072894;28;19995;-58
2023/05/08 13:49:00;;;;;;;;;;;;;;;;;;5061112;28;19978;-58
2023/05/08 13:51:26;;;;;;;;;;;;;;;;;;5061230;28;19955;-58
2023/05/08 13:53:52;;;;;;;;;;;;;;;;;;5066240;28;19951;-58
2023/05/08 13:56:19;;;;;;;;;;;;;;;;;;5066574;28;20333;-58
2023/05/08 13:58:45;;;;;;;;;;;;;;;;;;5069011;28;19908;-57
2023/05/08 14:01:11;;;;;;;;;;;;;;;;;;5064843;28;19912;-57
2023/05/08 14:03:37;;;;;;;;;;;;;;;;;;5065545;28;19909;-56
2023/05/08 14:08:48;;;;;;;;;;;;;;;;;;5060579;28;20189;-57
2023/05/08 14:11:14;;;;;;;;;;;;;;;;;;5066692;28;19916;-57
2023/05/08 14:13:40;;;;;;;;;;;;;;;;;;5059978;28;19947;-58
2023/05/08 14:16:07;;;;;;;;;;;;;;;;;;5067455;28;19913;-59
2023/05/08 14:18:32;;;;;;;;;;;;;;;;;;5067642;28;20423;-59
2023/05/08 14:20:58;;;;;;;;;;;;;;;;;;5055504;28;20003;-57
2023/05/08 14:23:25;;;;;;;;;;;;;;;;;;5054651;28;21157;-58
2023/05/08 14:25:50;;;;;;;;;;;;;;;;;;5065658;28;19928;-58
2023/05/08 14:28:16;;;;;;;;;;;;;;;;;;5069127;28;20013;-58
2023/05/08 14:30:43;;;;;;;;;;;;;;;;;;5067851;28;19966;-57
2023/05/08 14:33:09;;;;;;;;;;;;;;;;;;5058586;28;20006;-58
2023/05/08 14:35:35;;;;;;;;;;;;;;;;;;5067597;28;20460;-57
2023/05/08 14:38:01;;;;;;;;;;;;;;;;;;5065974;28;19908;-58
2023/05/08 14:40:27;;;;;;;;;;;;;;;;;;5044050;28;19912;-57
2023/05/08 14:42:53;;;;;;;;;;;;;;;;;;5068872;28;19950;-57
2023/05/08 14:45:19;;;;;;;;;;;;;;;;;;5068408;28;19948;-57
2023/05/08 14:47:45;;;;;;;;;;;;;;;;;;5068485;28;20261;-57
2023/05/08 14:50:11;;;;;;;;;;;;;;;;;;5062116;28;19997;-58
2023/05/08 14:52:37;;;;;;;;;;;;;;;;;;5067167;28;20355;-58
2023/05/08 14:55:03;;;;;;;;;;;;;;;;;;5067071;28;19995;-58
2023/05/08 14:57:29;;;;;;;;;;;;;;;;;;5068347;28;19916;-58
2023/05/08 14:59:55;;;;;;;;;;;;;;;;;;5063939;28;19919;-57
2023/05/08 15:02:21;;;;;;;;;;;;;;;;;;5069338;28;19950;-58
2023/05/08 15:04:47;;;;;;;;;;;;;;;;;;5060995;28;20300;-58
2023/05/08 15:07:13;;;;;;;;;;;;;;;;;;5059213;28;19916;-57
2023/05/08 15:09:39;;;;;;;;;;;;;;;;;;5059612;28;20264;-57
2023/05/08 15:12:05;;;;;;;;;;;;;;;;;;5068674;28;19908;-58
2023/05/08 15:14:31;;;;;;;;;;;;;;;;;;5068027;28;20429;-59
2023/05/08 15:16:57;;;;;;;;;;;;;;;;;;5068016;28;19912;-56
2023/05/08 15:19:23;;;;;;;;;;;;;;;;;;5060619;28;20386;-58
2023/05/08 15:21:49;;;;;;;;;;;;;;;;;;5060347;28;20011;-58
2023/05/08 15:24:15;;;;;;;;;;;;;;;;;;5068685;28;20007;-65
2023/05/08 15:26:41;;;;;;;;;;;;;;;;;;5069406;28;19995;-57
2023/05/08 15:29:07;;;;;;;;;;;;;;;;;;5064257;28;19971;-58
2023/05/08 15:31:33;;;;;;;;;;;;;;;;;;5069578;28;20513;-58
2023/05/08 15:33:59;;;;;;;;;;;;;;;;;;5068514;28;19951;-57
2023/05/08 15:36:26;;;;;;;;;;;;;;;;;;5052661;28;19952;-57
2023/05/08 15:38:52;;;;;;;;;;;;;;;;;;5071208;28;19908;-57
2023/05/08 15:41:20;;;;;;;;;;;;;;;;;;5069210;28;19931;-54
2023/05/08 15:43:46;;;;;;;;;;;;;;;;;;5062211;28;19919;-55
2023/05/08 15:46:12;;;;;;;;;;;;;;;;;;5066277;28;19963;-55
2023/05/08 15:48:38;;;;;;;;;;;;;;;;;;5068309;28;19947;-55
2023/05/08 15:51:04;;;;;;;;;;;;;;;;;;5068735;28;19926;-56
2023/05/08 15:53:30;;;;;;;;;;;;;;;;;;5065641;28;19917;-55
2023/05/08 15:55:56;;;;;;;;;;;;;;;;;;5066549;28;20011;-54
2023/05/08 15:58:22;;;;;;;;;;;;;;;;;;5051015;28;20515;-55
2023/05/08 16:00:48;;;;;;;;;;;;;;;;;;5068424;28;19978;-55
2023/05/08 16:03:14;;;;;;;;;;;;;;;;;;5062143;28;20012;-57
2023/05/08 16:05:40;;;;;;;;;;;;;;;;;;5067411;28;19997;-59
2023/05/08 16:08:10;;;;;;;;;;;;;;;;;;5069736;28;20383;-58
2023/05/08 16:10:37;;;;;;;;;;;;;;;;;;5066626;28;19908;-57
2023/05/08 16:13:03;;;;;;;;;;;;;;;;;;5061870;28;20391;-58
2023/05/08 16:15:29;;;;;;;;;;;;;;;;;;5067615;28;19909;-59
2023/05/08 16:17:54;;;;;;;;;;;;;;;;;;5069385;28;19908;-58
2023/05/08 16:20:20;;;;;;;;;;;;;;;;;;5071305;28;19947;-58
2023/05/08 16:22:46;;;;;;;;;;;;;;;;;;5071234;28;19983;-59
2023/05/08 16:25:12;;;;;;;;;;;;;;;;;;5070094;28;19951;-58
2023/05/08 16:27:38;;;;;;;;;;;;;;;;;;5066833;28;19912;-58
2023/05/08 16:30:05;;;;;;;;;;;;;;;;;;5070038;28;19935;-58
2023/05/08 16:32:31;;;;;;;;;;;;;;;;;;5070413;28;19924;-57
2023/05/08 16:34:57;;;;;;;;;;;;;;;;;;5068870;28;19912;-58
2023/05/08 16:37:22;;;;;;;;;;;;;;;;;;5072075;28;19955;-58
2023/05/08 16:39:49;;;;;;;;;;;;;;;;;;5070521;28;20341;-58